Time;durP1;ratioP1;P1;durP2;ratioP2;P2;SDS_P1;SDS_P2;PMS_P1;PMS_P2;Temp;Humidity;BMP_temperature;BMP_pressure;BME280_temperature;BME280_humidity;BME280_pressure;Samples;Min_cycle;Max_cycle;Signal;HPM_P1;HPM_P2
2021/09/26 00:01:27;;;;;;;14.15;8.27;;;;;;;33.35;20.03;95078.09;5121939;28;20040;-52
2021/09/26 00:03:54;;;;;;;16.58;8.70;;;;;;;33.37;20.02;95075.75;5114547;28;20047;-51
2021/09/26 00:06:22;;;;;;;12.40;8.27;;;;;;;33.30;19.81;95065.00;5122479;28;20461;-52
2021/09/26 00:08:49;;;;;;;10.85;7.18;;;;;;;33.34;19.74;95071.16;5122408;28;20054;-53
2021/09/26 00:11:16;;;;;;;11.07;6.80;;;;;;;33.35;19.99;95067.28;5122152;28;20450;-52
2021/09/26 00:13:44;;;;;;;10.45;6.47;;;;;;;33.50;19.89;95068.50;5121977;28;20047;-54
2021/09/26 00:16:12;;;;;;;8.98;5.57;;;;;;;33.44;19.99;95070.19;5115081;28;20066;-52
2021/09/26 00:18:39;;;;;;;7.60;5.32;;;;;;;33.52;19.86;95066.16;5116597;28;20054;-51
2021/09/26 00:21:07;;;;;;;10.80;6.00;;;;;;;33.39;19.67;95068.72;5115589;28;20052;-52
2021/09/26 00:23:34;;;;;;;6.55;4.70;;;;;;;33.50;19.65;95067.75;5121815;28;20035;-54
2021/09/26 00:26:03;;;;;;;8.32;5.50;;;;;;;33.33;19.90;95059.56;5122246;28;20051;-52
2021/09/26 00:28:30;;;;;;;8.38;4.90;;;;;;;33.13;20.23;95056.03;5114590;28;20048;-52
2021/09/26 00:30:58;;;;;;;12.32;5.43;;;;;;;33.23;20.13;95065.91;5120146;28;20048;-50
2021/09/26 00:33:25;;;;;;;11.07;5.43;;;;;;;33.19;20.13;95059.03;5121281;28;20412;-51
2021/09/26 00:35:52;;;;;;;10.15;5.28;;;;;;;33.23;19.96;95071.31;5121892;28;20373;-51
2021/09/26 00:38:19;;;;;;;11.32;5.63;;;;;;;33.29;20.01;95066.16;5118995;28;20446;-53
2021/09/26 00:40:50;;;;;;;9.95;5.53;;;;;;;33.40;20.05;95064.06;5112569;28;20043;-53
2021/09/26 00:43:18;;;;;;;8.73;5.55;;;;;;;33.09;20.28;95069.63;5114463;28;20058;-51
2021/09/26 00:45:46;;;;;;;10.45;5.80;;;;;;;33.16;19.95;95065.28;5121390;28;20382;-52
2021/09/26 00:48:13;;;;;;;9.93;5.75;;;;;;;33.01;20.19;95057.38;5115255;27;20402;-51
2021/09/26 00:50:40;;;;;;;7.60;4.90;;;;;;;33.09;20.20;95063.47;5115344;28;20377;-51
2021/09/26 00:53:08;;;;;;;9.27;5.13;;;;;;;33.19;20.03;95064.44;5114371;28;20732;-51
2021/09/26 00:55:36;;;;;;;8.57;5.18;;;;;;;33.05;19.93;95068.94;5121588;28;20446;-52
2021/09/26 00:58:03;;;;;;;10.30;5.50;;;;;;;33.30;19.91;95067.69;5114506;28;20058;-55
2021/09/26 01:00:30;;;;;;;9.80;5.65;;;;;;;33.28;20.06;95075.47;5114358;28;20068;-51
2021/09/26 01:02:57;;;;;;;10.82;6.30;;;;;;;33.36;19.58;95074.22;5108352;28;20047;-53
2021/09/26 01:05:27;;;;;;;9.10;6.03;;;;;;;32.86;20.29;95064.25;5114219;28;20047;-51
2021/09/26 01:08:06;;;;;;;13.02;6.38;;;;;;;32.94;19.95;95062.94;5096798;28;20055;-51
2021/09/26 01:10:40;;;;;;;9.88;6.22;;;;;;;33.19;19.71;95064.44;5096369;28;20048;-51
2021/09/26 01:13:38;;;;;;;10.07;5.82;;;;;;;33.10;19.93;95063.03;5119078;28;20458;-52
2021/09/26 01:16:11;;;;;;;10.13;5.95;;;;;;;32.76;20.31;95070.56;5114175;28;20063;-52
2021/09/26 01:18:57;;;;;;;10.88;6.80;;;;;;;32.67;20.62;95078.44;5102808;28;20051;-51
2021/09/26 01:21:44;;;;;;;11.00;7.43;;;;;;;32.85;19.99;95072.78;5121187;28;20046;-52
2021/09/26 01:24:17;;;;;;;11.00;7.68;;;;;;;32.71;20.65;95071.03;5103451;28;20050;-52
2021/09/26 01:27:09;;;;;;;13.98;8.13;;;;;;;32.79;20.35;95078.66;5103547;28;20047;-52
2021/09/26 01:30:11;;;;;;;14.77;8.68;;;;;;;32.51;20.23;95077.13;5113953;28;20054;-55
2021/09/26 01:32:39;;;;;;;11.13;7.00;;;;;;;32.91;20.24;95074.59;5113888;28;20059;-50
2021/09/26 01:35:09;;;;;;;12.65;7.95;;;;;;;32.97;20.21;95069.47;5096533;28;20054;-53
2021/09/26 01:37:54;;;;;;;14.98;9.05;;;;;;;32.75;20.09;95069.03;5103778;28;20047;-52
2021/09/26 01:40:34;;;;;;;15.30;8.85;;;;;;;32.72;20.25;95070.63;5097236;28;20050;-51
2021/09/26 01:43:07;;;;;;;12.30;7.60;;;;;;;32.87;19.98;95068.47;5096189;28;20051;-51
2021/09/26 01:45:48;;;;;;;16.10;8.32;;;;;;;32.55;20.34;95060.09;5099052;28;20050;-53
2021/09/26 01:48:39;;;;;;;14.60;8.77;;;;;;;32.82;20.25;95063.53;5063896;28;20538;-52
2021/09/26 01:51:07;;;;;;;14.85;8.57;;;;;;;32.75;20.07;95064.38;5071188;28;20294;-51
2021/09/26 01:53:37;;;;;;;12.20;8.50;;;;;;;32.37;20.78;95066.53;5079530;28;20051;-51
2021/09/26 01:56:05;;;;;;;11.73;7.85;;;;;;;32.26;20.78;95057.03;5081409;28;20471;-51
2021/09/26 01:58:33;;;;;;;11.60;7.47;;;;;;;32.73;20.49;95065.97;5084229;28;20059;-52
2021/09/26 02:01:07;;;;;;;11.25;7.25;;;;;;;32.74;19.89;95075.63;5082904;28;20047;-51
2021/09/26 02:03:35;;;;;;;8.25;6.07;;;;;;;32.54;20.65;95069.41;5084134;28;20052;-52
2021/09/26 02:06:02;;;;;;;9.20;6.43;;;;;;;32.60;20.40;95068.50;5082902;28;20056;-51
2021/09/26 02:08:30;;;;;;;7.90;5.63;;;;;;;32.47;20.55;95064.84;5076988;28;20056;-52
2021/09/26 02:10:57;;;;;;;8.40;5.95;;;;;;;32.50;20.26;95059.38;5083810;28;20044;-52
2021/09/26 02:13:24;;;;;;;7.40;6.50;;;;;;;32.99;20.05;95067.88;5083178;28;20351;-53
2021/09/26 02:15:52;;;;;;;9.48;5.82;;;;;;;32.68;20.36;95063.75;5072350;28;20481;-55
2021/09/26 02:18:20;;;;;;;7.25;5.43;;;;;;;32.56;20.13;95064.34;5068734;28;20064;-51
2021/09/26 02:20:47;;;;;;;8.35;5.40;;;;;;;32.64;20.23;95068.44;5082380;28;20360;-55
2021/09/26 02:23:15;;;;;;;7.05;5.57;;;;;;;32.44;20.16;95071.84;5075626;28;20060;-52
2021/09/26 02:25:43;;;;;;;7.63;5.13;;;;;;;32.64;20.37;95073.88;5080438;28;20051;-55
2021/09/26 02:28:10;;;;;;;9.05;5.63;;;;;;;32.16;20.58;95067.59;5081942;28;20059;-52
2021/09/26 02:30:39;;;;;;;11.45;5.82;;;;;;;32.26;20.59;95070.56;5075599;28;20489;-51
2021/09/26 02:33:07;;;;;;;9.20;6.15;;;;;;;32.40;20.44;95071.13;5083512;28;20048;-55
2021/09/26 02:35:34;;;;;;;12.48;7.60;;;;;;;32.41;20.20;95075.38;5083622;28;20048;-54
2021/09/26 02:38:01;;;;;;;22.38;10.45;;;;;;;32.73;20.24;95065.97;5076218;28;20052;-52
2021/09/26 02:40:28;;;;;;;20.42;11.13;;;;;;;32.37;20.52;95076.59;5083242;28;20059;-53
2021/09/26 02:43:10;;;;;;;20.60;10.90;;;;;;;32.31;20.47;95078.25;5082999;28;20328;-52
2021/09/26 02:45:44;;;;;;;20.10;9.35;;;;;;;32.35;20.32;95082.41;5076889;28;20051;-52
2021/09/26 02:48:17;;;;;;;15.20;7.97;;;;;;;32.42;20.50;95084.25;5084421;28;20059;-54
2021/09/26 02:50:46;;;;;;;12.90;7.70;;;;;;;32.44;20.61;95076.47;5098646;28;20051;-52
2021/09/26 02:53:13;;;;;;;14.18;8.10;;;;;;;32.30;20.20;95082.13;5123891;28;20054;-52
2021/09/26 02:55:43;;;;;;;14.82;7.35;;;;;;;32.48;20.49;95077.94;5105903;28;20055;-54
2021/09/26 02:58:10;;;;;;;12.00;7.78;;;;;;;32.36;20.35;95092.06;5098063;28;20047;-53
2021/09/26 03:00:40;;;;;;;13.93;8.00;;;;;;;31.97;20.50;95080.97;5123699;28;20048;-52
2021/09/26 03:03:08;;;;;;;12.52;8.15;;;;;;;32.28;20.22;95090.63;5122787;28;20044;-54
2021/09/26 03:05:37;;;;;;;10.75;8.40;;;;;;;32.15;20.37;95087.69;5123470;28;20054;-52
2021/09/26 03:08:04;;;;;;;12.63;8.00;;;;;;;32.11;20.78;95091.63;5098041;28;20052;-52
2021/09/26 03:10:32;;;;;;;8.07;6.07;;;;;;;31.80;21.04;95088.94;5116495;28;20047;-55
2021/09/26 03:12:59;;;;;;;9.52;6.68;;;;;;;32.21;20.68;95090.69;5115432;28;20043;-52
2021/09/26 03:15:26;;;;;;;9.70;6.68;;;;;;;31.78;21.07;95096.69;5112578;28;20488;-52
2021/09/26 03:17:53;;;;;;;11.18;7.07;;;;;;;31.86;20.99;95092.72;5109117;28;20055;-52
2021/09/26 03:20:21;;;;;;;9.10;6.18;;;;;;;32.14;20.41;95082.69;5123448;28;20054;-51
2021/09/26 03:22:49;;;;;;;9.35;6.57;;;;;;;31.84;20.78;95078.84;5122065;28;20373;-53
2021/09/26 03:25:18;;;;;;;12.32;6.63;;;;;;;31.86;20.58;95081.13;5115858;28;20054;-52
2021/09/26 03:27:45;;;;;;;11.07;6.55;;;;;;;32.10;20.28;95080.03;5122149;28;20050;-52
2021/09/26 03:30:12;;;;;;;10.52;6.07;;;;;;;31.83;20.48;95088.13;5103601;28;20044;-53
2021/09/26 03:32:40;;;;;;;11.27;7.18;;;;;;;31.97;20.32;95081.75;5106534;28;20043;-52
2021/09/26 03:35:08;;;;;;;14.20;8.10;;;;;;;31.92;20.71;95089.53;5112220;28;20056;-53
2021/09/26 03:37:36;;;;;;;18.67;8.90;;;;;;;31.74;20.83;95090.53;5095313;28;20048;-54
2021/09/26 03:40:04;;;;;;;18.67;9.80;;;;;;;31.66;20.69;95088.28;5114353;28;20073;-56
2021/09/26 03:42:31;;;;;;;19.15;10.07;;;;;;;31.90;20.61;95085.31;5122473;28;20054;-52
2021/09/26 03:44:59;;;;;;;12.88;8.93;;;;;;;31.94;20.62;95087.19;5122633;28;20358;-52
2021/09/26 03:47:26;;;;;;;15.20;8.88;;;;;;;31.93;20.50;95088.38;5116096;28;20054;-53
2021/09/26 03:49:53;;;;;;;13.88;9.27;;;;;;;31.57;21.04;95086.09;5122505;28;20048;-52
2021/09/26 03:52:20;;;;;;;12.23;9.07;;;;;;;31.63;20.58;95079.06;5106908;28;20374;-54
2021/09/26 03:54:50;;;;;;;12.43;7.85;;;;;;;31.72;20.46;95082.06;5114651;28;20053;-54
2021/09/26 03:57:18;;;;;;;12.90;9.02;;;;;;;31.73;20.51;95078.19;5114686;28;20052;-53
2021/09/26 03:59:45;;;;;;;13.05;8.30;;;;;;;31.72;20.53;95081.28;5117958;28;20051;-52
2021/09/26 04:02:12;;;;;;;12.40;8.18;;;;;;;31.55;20.45;95083.03;5120463;28;20471;-52
2021/09/26 04:04:39;;;;;;;10.00;8.02;;;;;;;31.51;20.90;95091.16;5122389;28;20050;-52
2021/09/26 04:07:07;;;;;;;11.70;8.40;;;;;;;31.31;21.11;95092.94;5122579;28;20043;-52
2021/09/26 04:09:34;;;;;;;11.80;8.20;;;;;;;31.48;20.89;95091.19;5121511;28;20065;-53
2021/09/26 04:12:01;;;;;;;10.27;7.97;;;;;;;31.49;20.91;95096.22;5114587;28;20047;-54
2021/09/26 04:14:28;;;;;;;14.00;8.85;;;;;;;31.39;20.94;95090.91;5121477;28;20044;-52
2021/09/26 04:16:55;;;;;;;13.00;8.60;;;;;;;31.03;21.54;95091.25;5120346;28;20434;-53
2021/09/26 04:19:22;;;;;;;9.65;7.70;;;;;;;31.52;20.73;95097.34;5121738;28;20058;-54
2021/09/26 04:21:50;;;;;;;11.23;8.52;;;;;;;31.49;21.10;95090.03;5121296;28;20358;-52
2021/09/26 04:24:18;;;;;;;10.63;8.18;;;;;;;31.65;20.76;95100.28;5102553;28;20044;-52
2021/09/26 04:26:46;;;;;;;11.63;9.13;;;;;;;31.46;20.84;95096.22;5109801;28;20354;-54
2021/09/26 04:29:13;;;;;;;11.80;9.38;;;;;;;31.65;20.59;95097.56;5107441;28;20043;-52
2021/09/26 04:31:40;;;;;;;12.77;9.07;;;;;;;31.35;21.20;95098.28;5101437;28;20047;-53
2021/09/26 04:34:08;;;;;;;11.50;9.43;;;;;;;31.46;21.06;95088.88;5112442;28;20462;-54
2021/09/26 04:36:35;;;;;;;14.13;9.80;;;;;;;31.83;20.71;95092.75;5121516;28;20051;-52
2021/09/26 04:39:02;;;;;;;17.08;10.70;;;;;;;31.50;21.05;95088.88;5122200;28;20039;-53
2021/09/26 04:41:29;;;;;;;14.25;9.93;;;;;;;31.60;21.14;95101.50;5109020;28;20058;-55
2021/09/26 04:43:57;;;;;;;16.15;8.90;;;;;;;32.19;20.13;95099.22;5102436;28;20063;-53
2021/09/26 04:46:24;;;;;;;11.52;7.35;;;;;;;32.10;20.70;95106.31;5121385;28;20055;-52
2021/09/26 04:48:51;;;;;;;9.38;6.82;;;;;;;31.85;20.96;95112.81;5115725;28;20060;-51
2021/09/26 04:51:18;;;;;;;6.55;5.40;;;;;;;32.12;20.35;95110.13;5108741;28;20050;-52
2021/09/26 04:53:45;;;;;;;5.70;5.10;;;;;;;32.03;20.76;95111.81;5101480;28;20044;-53
2021/09/26 04:56:12;;;;;;;6.65;5.00;;;;;;;32.06;20.87;95111.00;5105818;28;20043;-53
2021/09/26 04:58:39;;;;;;;5.55;4.30;;;;;;;32.17;20.87;95095.38;5114051;28;20378;-53
2021/09/26 05:01:06;;;;;;;7.70;4.68;;;;;;;32.37;20.58;95107.13;5119022;28;20043;-52
2021/09/26 05:03:33;;;;;;;5.10;4.28;;;;;;;32.43;20.59;95102.00;5085384;28;20054;-52
2021/09/26 05:06:00;;;;;;;4.43;3.90;;;;;;;32.55;20.29;95114.22;5113642;28;20044;-52
2021/09/26 05:08:29;;;;;;;5.22;4.50;;;;;;;32.70;20.50;95110.88;5112520;28;20055;-53
2021/09/26 05:10:56;;;;;;;5.15;4.38;;;;;;;32.88;20.10;95107.91;5116785;28;20450;-52
2021/09/26 05:13:23;;;;;;;4.40;3.63;;;;;;;32.75;20.24;95113.09;5121696;28;20047;-52
2021/09/26 05:15:51;;;;;;;5.00;3.80;;;;;;;32.91;20.31;95114.44;5121687;28;20036;-52
2021/09/26 05:18:18;;;;;;;5.30;4.00;;;;;;;32.93;20.38;95112.84;5116986;28;20054;-51
2021/09/26 05:20:45;;;;;;;4.63;4.07;;;;;;;33.07;20.16;95112.63;5121308;28;20058;-53
2021/09/26 05:23:12;;;;;;;5.20;3.60;;;;;;;33.03;20.30;95114.59;5115580;28;20043;-52
2021/09/26 05:25:39;;;;;;;4.22;3.63;;;;;;;33.43;19.85;95117.44;5110830;28;20047;-53
2021/09/26 05:28:06;;;;;;;7.72;4.32;;;;;;;33.59;19.91;95119.47;5118650;28;20043;-52
2021/09/26 05:30:34;;;;;;;7.55;4.07;;;;;;;33.60;19.71;95115.56;5122532;28;20347;-53
2021/09/26 05:33:02;;;;;;;5.28;4.25;;;;;;;33.75;19.33;95118.75;5119447;28;20046;-53
2021/09/26 05:35:29;;;;;;;7.15;4.63;;;;;;;33.90;19.34;95117.34;5125435;28;20048;-53
2021/09/26 05:37:57;;;;;;;5.80;4.38;;;;;;;33.89;19.33;95122.00;5122349;28;20460;-52
2021/09/26 05:40:25;;;;;;;5.03;4.45;;;;;;;34.36;19.18;95116.38;5125363;28;20051;-52
2021/09/26 05:42:52;;;;;;;7.38;4.45;;;;;;;34.28;19.00;95121.16;5124703;28;20047;-53
2021/09/26 05:45:19;;;;;;;8.02;4.47;;;;;;;34.58;19.25;95124.78;5117825;27;20504;-52
2021/09/26 05:47:46;;;;;;;5.60;4.50;;;;;;;34.35;19.27;95124.91;5120106;28;20063;-52
2021/09/26 05:50:13;;;;;;;5.03;4.57;;;;;;;34.71;19.17;95130.31;5097239;28;20052;-54
2021/09/26 05:52:41;;;;;;;5.72;4.28;;;;;;;34.70;18.99;95135.00;5120859;28;20043;-51
2021/09/26 05:55:08;;;;;;;7.22;5.38;;;;;;;34.86;18.77;95124.13;5114890;27;20051;-63
2021/09/26 05:57:36;;;;;;;7.03;4.78;;;;;;;34.73;19.00;95123.28;5114832;27;20047;-76
2021/09/26 06:00:05;;;;;;;5.30;4.53;;;;;;;35.48;18.23;95116.03;5100004;27;20056;-55
2021/09/26 06:02:39;;;;;;;7.03;4.75;;;;;;;35.69;18.28;95125.56;5121068;28;20035;-57
2021/09/26 06:05:07;;;;;;;5.75;4.70;;;;;;;35.86;18.30;95124.31;5110873;27;20051;-53
2021/09/26 06:07:35;;;;;;;5.28;4.70;;;;;;;35.71;18.65;95123.19;5116071;28;20051;-54
2021/09/26 06:10:04;;;;;;;5.22;4.55;;;;;;;35.81;18.36;95127.53;5107132;27;20047;-69
2021/09/26 06:12:31;;;;;;;8.75;4.60;;;;;;;36.15;17.87;95129.69;5116587;28;20442;-53
2021/09/26 06:14:58;;;;;;;6.28;4.15;;;;;;;36.16;18.12;95125.78;5117211;28;20052;-55
2021/09/26 06:17:25;;;;;;;7.43;4.63;;;;;;;36.59;17.67;95119.84;5113048;28;20060;-57
2021/09/26 06:19:52;;;;;;;8.07;5.03;;;;;;;36.59;17.79;95113.66;5114085;28;20495;-61
2021/09/26 06:22:20;;;;;;;7.00;4.60;;;;;;;36.85;17.85;95125.31;5113885;28;20048;-57
2021/09/26 06:24:48;;;;;;;6.03;5.43;;;;;;;36.95;17.57;95118.75;5113407;28;20058;-55
2021/09/26 06:27:15;;;;;;;7.07;5.60;;;;;;;37.01;17.10;95122.44;5124580;28;20047;-56
2021/09/26 06:29:42;;;;;;;9.00;6.30;;;;;;;37.03;16.75;95122.78;5124537;28;20438;-56
2021/09/26 06:32:09;;;;;;;9.25;5.80;;;;;;;36.54;17.19;95117.69;5115912;28;20461;-55
2021/09/26 06:34:37;;;;;;;9.10;6.10;;;;;;;36.84;17.32;95121.06;5118047;28;20058;-49
2021/09/26 06:37:05;;;;;;;6.68;5.82;;;;;;;36.86;16.89;95122.13;5109036;28;20400;-50
2021/09/26 06:39:34;;;;;;;6.82;5.30;;;;;;;37.24;17.54;95118.59;5095834;28;20055;-44
2021/09/26 06:42:01;;;;;;;7.13;5.18;;;;;;;37.35;17.08;95119.75;5113305;28;20055;-45
2021/09/26 06:44:28;;;;;;;8.10;5.32;;;;;;;37.50;17.15;95120.03;5123709;28;20052;-45
2021/09/26 06:46:55;;;;;;;8.52;5.30;;;;;;;37.42;16.99;95126.16;5117473;27;20054;-48
2021/09/26 06:49:22;;;;;;;7.05;5.10;;;;;;;37.66;17.50;95130.00;5123923;28;20051;-52
2021/09/26 06:51:49;;;;;;;7.57;5.18;;;;;;;38.20;17.71;95126.13;5114171;27;20468;-43
2021/09/26 06:54:16;;;;;;;11.15;5.47;;;;;;;38.85;17.02;95127.94;5111609;28;20058;-47
2021/09/26 06:56:43;;;;;;;11.45;6.25;;;;;;;39.55;15.74;95120.75;5123684;28;20078;-49
2021/09/26 06:59:10;;;;;;;17.05;6.80;;;;;;;39.58;16.06;95117.13;5117825;28;20044;-43
2021/09/26 07:01:37;;;;;;;159.73;126.25;;;;;;;39.83;15.31;95118.03;5120965;28;20047;-44
2021/09/26 07:04:04;;;;;;;56.75;36.83;;;;;;;40.45;14.71;95117.59;5108357;28;20461;-45
2021/09/26 07:06:31;;;;;;;31.05;11.85;;;;;;;40.77;14.50;95116.81;5123797;28;20048;-47
2021/09/26 07:08:58;;;;;;;19.45;8.43;;;;;;;40.93;14.05;95119.22;5115818;28;20055;-43
2021/09/26 07:11:25;;;;;;;20.38;7.60;;;;;;;41.30;14.02;95118.97;5113587;28;20058;-46
2021/09/26 07:13:53;;;;;;;21.75;7.90;;;;;;;41.40;13.87;95120.44;5120212;28;20059;-53
2021/09/26 07:16:22;;;;;;;30.58;9.27;;;;;;;41.38;14.01;95124.84;5123495;28;20055;-57
2021/09/26 07:18:51;;;;;;;21.52;9.27;;;;;;;41.56;13.68;95136.44;5109656;28;20051;-52
2021/09/26 07:21:19;;;;;;;52.58;37.33;;;;;;;41.57;13.76;95116.00;5122996;28;20047;-56
2021/09/26 07:23:46;;;;;;;631.13;579.97;;;;;;;41.74;13.44;95129.31;5123221;28;20047;-53
2021/09/26 07:26:13;;;;;;;311.90;281.30;;;;;;;42.14;13.33;95124.03;5123439;28;20061;-50
2021/09/26 07:28:40;;;;;;;80.10;62.75;;;;;;;42.65;12.71;95127.59;5110302;28;20048;-45
2021/09/26 07:31:07;;;;;;;29.83;20.77;;;;;;;42.44;13.19;95124.03;5103894;28;20055;-46
2021/09/26 07:33:34;;;;;;;16.73;15.02;;;;;;;42.43;12.84;95126.03;5122939;28;20043;-46
2021/09/26 07:36:01;;;;;;;29.98;12.43;;;;;;;42.34;12.84;95134.38;5115367;28;20047;-49
2021/09/26 07:38:28;;;;;;;26.05;10.50;;;;;;;42.27;13.13;95136.75;5116132;28;20046;-48
2021/09/26 07:40:56;;;;;;;20.10;8.23;;;;;;;42.21;12.96;95128.41;5115960;28;20449;-53
2021/09/26 07:43:25;;;;;;;18.45;8.23;;;;;;;42.53;12.87;95140.44;5115620;28;20480;-47
2021/09/26 07:45:53;;;;;;;14.25;7.47;;;;;;;42.74;12.58;95139.25;5105216;28;20055;-46
2021/09/26 07:48:20;;;;;;;43.58;30.02;;;;;;;42.97;12.24;95143.09;5115515;28;20067;-47
2021/09/26 07:50:49;;;;;;;439.27;392.73;;;;;;;43.22;12.02;95136.19;5116084;28;20052;-48
2021/09/26 07:53:17;;;;;;;121.53;108.78;;;;;;;43.37;12.30;95153.38;5114262;28;20073;-47
2021/09/26 07:55:44;;;;;;;26.20;12.60;;;;;;;43.65;11.67;95145.44;5113870;28;20369;-52
2021/09/26 07:58:11;;;;;;;17.48;7.45;;;;;;;42.44;12.73;95137.78;5111520;28;20362;-50
2021/09/26 08:00:38;;;;;;;13.63;6.63;;;;;;;41.16;13.78;95125.16;5109119;28;20054;-52
2021/09/26 08:03:05;;;;;;;13.07;6.32;;;;;;;40.77;13.92;95138.75;5115119;28;20052;-46
2021/09/26 08:05:32;;;;;;;7.75;5.22;;;;;;;40.53;13.85;95135.19;5115664;28;20035;-46
2021/09/26 08:08:00;;;;;;;5.93;4.95;;;;;;;40.49;14.38;95123.66;5115693;28;20055;-44
2021/09/26 08:10:27;;;;;;;15.25;5.90;;;;;;;40.65;14.24;95126.03;5115676;28;20050;-47
2021/09/26 08:12:54;;;;;;;14.00;5.35;;;;;;;40.10;14.34;95134.41;5115088;28;20048;-46
2021/09/26 08:15:21;;;;;;;6.57;4.47;;;;;;;40.60;13.88;95129.38;5115442;28;20054;-48
2021/09/26 08:17:50;;;;;;;8.93;8.00;;;;;;;40.54;13.99;95129.25;5102833;28;20055;-46
2021/09/26 08:20:17;;;;;;;56.83;36.88;;;;;;;40.87;14.11;95132.03;5107740;27;20047;-53
2021/09/26 08:22:45;;;;;;;36.03;30.30;;;;;;;40.57;13.92;95127.56;5107737;28;20465;-49
2021/09/26 08:25:14;;;;;;;9.43;7.57;;;;;;;40.22;14.70;95124.50;5114843;28;20086;-50
2021/09/26 08:27:41;;;;;;;7.20;5.63;;;;;;;40.40;14.49;95121.72;5108400;28;20040;-49
2021/09/26 08:30:09;;;;;;;10.15;5.85;;;;;;;40.47;14.75;95120.63;5113541;28;20051;-48
2021/09/26 08:32:38;;;;;;;8.15;4.93;;;;;;;40.26;15.19;95123.09;5105106;28;20047;-54
2021/09/26 08:35:06;;;;;;;8.98;4.55;;;;;;;40.31;14.89;95117.00;5101004;28;20047;-47
2021/09/26 08:37:34;;;;;;;5.00;4.30;;;;;;;40.53;14.34;95114.03;5095031;28;20047;-50
2021/09/26 08:40:02;;;;;;;5.43;4.30;;;;;;;40.47;14.23;95115.91;5094905;28;20055;-50
2021/09/26 08:42:29;;;;;;;7.22;4.40;;;;;;;40.47;14.78;95104.19;5100740;28;20051;-49
2021/09/26 08:44:57;;;;;;;10.45;5.10;;;;;;;40.22;14.38;95114.28;5114440;28;20052;-47
2021/09/26 08:47:25;;;;;;;7.43;4.47;;;;;;;40.68;14.42;95108.66;5096243;28;20052;-51
2021/09/26 08:49:53;;;;;;;10.52;4.30;;;;;;;40.52;14.36;95112.53;5114917;28;20051;-52
2021/09/26 08:52:21;;;;;;;11.73;4.90;;;;;;;40.69;14.72;95104.69;5096841;28;20442;-52
2021/09/26 08:54:49;;;;;;;6.70;4.10;;;;;;;40.67;14.51;95112.63;5097073;28;20052;-50
2021/09/26 08:57:16;;;;;;;6.68;4.50;;;;;;;40.25;14.67;95105.16;5114812;28;20062;-52
2021/09/26 08:59:43;;;;;;;7.32;4.68;;;;;;;40.41;14.35;95106.06;5115183;28;20343;-51
2021/09/26 09:02:10;;;;;;;4.78;3.80;;;;;;;40.74;14.20;95112.28;5114493;28;20050;-49
2021/09/26 09:04:40;;;;;;;5.47;4.32;;;;;;;39.96;14.69;95099.47;5097838;28;20446;-53
2021/09/26 09:07:09;;;;;;;7.32;3.95;;;;;;;39.95;14.65;95104.19;5117234;28;20689;-50
2021/09/26 09:09:51;;;;;;;5.20;3.63;;;;;;;40.07;14.38;95088.78;5119255;28;20433;-52
2021/09/26 09:12:18;;;;;;;7.85;4.43;;;;;;;39.82;14.63;95089.13;5118732;28;20438;-49
2021/09/26 09:15:13;;;;;;;6.72;4.70;;;;;;;39.88;14.79;95088.06;5088140;28;20052;-52
2021/09/26 09:17:41;;;;;;;10.15;4.63;;;;;;;39.87;15.05;95097.50;5118940;27;20055;-53
2021/09/26 09:20:35;;;;;;;7.63;4.63;;;;;;;40.29;14.97;95089.31;5119174;28;20039;-54
2021/09/26 09:23:30;;;;;;;8.25;4.85;;;;;;;40.05;15.66;95078.28;5114792;28;20051;-50
2021/09/26 09:25:57;;;;;;;6.07;3.83;;;;;;;39.82;15.38;95089.91;5118629;28;20404;-53
2021/09/26 09:28:30;;;;;;;5.28;4.05;;;;;;;40.23;14.92;95085.69;5118738;28;20055;-54
2021/09/26 09:31:02;;;;;;;4.35;3.85;;;;;;;40.66;14.45;95095.44;5118538;28;20067;-51
2021/09/26 09:33:45;;;;;;;7.68;4.32;;;;;;;40.40;15.13;95082.63;5118462;28;20040;-54
2021/09/26 09:36:26;;;;;;;9.85;4.00;;;;;;;40.48;15.06;95089.28;5117963;28;20323;-52
2021/09/26 09:38:59;;;;;;;5.57;3.70;;;;;;;40.75;14.88;95085.63;5117088;28;20074;-53
2021/09/26 09:41:44;;;;;;;4.40;3.80;;;;;;;40.70;14.71;95089.78;5113366;28;20055;-62
2021/09/26 09:44:13;;;;;;;16.52;5.82;;;;;;;40.82;14.90;95075.09;5105789;28;20063;-53
2021/09/26 09:46:47;;;;;;;7.22;4.00;;;;;;;40.57;14.51;95081.00;5114984;28;20055;-53
2021/09/26 09:49:25;;;;;;;8.68;3.90;;;;;;;40.54;14.71;95070.97;5114705;28;20058;-57
2021/09/26 09:51:54;;;;;;;10.20;4.60;;;;;;;40.64;15.14;95080.69;5097933;28;20044;-58
2021/09/26 09:54:39;;;;;;;9.32;4.38;;;;;;;40.57;15.42;95070.81;5104173;28;20047;-54
2021/09/26 09:57:11;;;;;;;8.73;3.90;;;;;;;40.65;15.07;95082.19;5115842;28;20362;-57
2021/09/26 09:59:38;;;;;;;7.60;4.03;;;;;;;40.68;14.96;95070.31;5106350;28;20058;-54
2021/09/26 10:02:05;;;;;;;7.88;4.00;;;;;;;40.93;14.68;95069.88;5097545;28;20048;-55
2021/09/26 10:04:39;;;;;;;10.73;4.57;;;;;;;41.04;14.57;95061.09;5102977;28;20040;-69
2021/09/26 10:07:26;;;;;;;8.15;4.15;;;;;;;40.73;14.98;95057.94;5116322;28;20051;-49
2021/09/26 10:09:55;;;;;;;10.38;4.00;;;;;;;40.33;15.31;95059.78;5104386;28;20066;-45
2021/09/26 10:12:32;;;;;;;6.97;4.38;;;;;;;40.18;15.51;95056.22;5097188;28;20044;-49
2021/09/26 10:15:01;;;;;;;6.90;4.10;;;;;;;40.43;15.37;95054.31;5107501;28;20074;-59
2021/09/26 10:17:29;;;;;;;4.72;3.60;;;;;;;40.50;14.92;95056.69;5115535;28;20457;-60
2021/09/26 10:19:57;;;;;;;5.40;3.60;;;;;;;40.19;15.15;95046.78;5104454;28;20059;-60
2021/09/26 10:22:24;;;;;;;9.68;4.10;;;;;;;40.33;15.54;95048.81;5108542;28;20056;-61
2021/09/26 10:24:54;;;;;;;11.90;3.95;;;;;;;40.52;15.13;95046.03;5105150;28;20046;-69
2021/09/26 10:27:22;;;;;;;7.33;4.07;;;;;;;40.35;15.05;95038.19;5116466;28;20046;-60
2021/09/26 10:29:53;;;;;;;12.68;4.00;;;;;;;40.60;14.91;95030.75;5115904;28;20040;-54
2021/09/26 10:32:20;;;;;;;;;;;;;;;40.71;15.02;95019.28;5097509;28;20439;-62
2021/09/26 10:34:47;;;;;;;7.53;3.92;;;;;;;40.54;15.25;95022.44;5121378;27;19935;-61
2021/09/26 10:37:15;;;;;;;10.07;3.85;;;;;;;40.39;15.13;95024.34;5098412;28;20046;-57
2021/09/26 10:39:43;;;;;;;8.52;4.03;;;;;;;40.47;14.96;95014.56;5106417;28;20047;-58
2021/09/26 10:42:16;;;;;;;15.65;4.20;;;;;;;40.76;14.99;95019.41;5106871;28;20075;-59
2021/09/26 10:44:49;;;;;;;12.95;4.28;;;;;;;40.53;14.54;95020.16;5104280;28;20051;-62
2021/09/26 10:47:16;;;;;;;4.25;3.50;;;;;;;40.36;14.28;95012.31;5116667;28;20051;-51
2021/09/26 10:49:51;;;;;;;4.80;3.25;;;;;;;40.29;13.31;95011.88;5107194;28;20051;-48
2021/09/26 10:52:46;;;;;;;14.30;3.50;;;;;;;40.68;13.77;95016.25;5107235;28;20051;-63
2021/09/26 10:55:21;;;;;;;10.23;3.40;;;;;;;40.83;14.30;95004.59;5105108;28;20048;-49
2021/09/26 10:57:49;;;;;;;5.10;3.28;;;;;;;40.50;13.76;94999.94;5100305;28;20055;-46
2021/09/26 11:00:43;;;;;;;5.68;3.00;;;;;;;40.79;12.93;94999.28;5103516;28;20051;-47
2021/09/26 11:03:11;;;;;;;4.50;3.20;;;;;;;40.91;13.76;94990.09;5100249;28;20051;-58
2021/09/26 11:05:49;;;;;;;4.18;3.60;;;;;;;40.78;13.90;94992.28;5115119;28;20055;-60
2021/09/26 11:08:25;;;;;;;23.02;19.83;;;;;;;40.53;13.14;94981.81;5096515;28;20040;-59
2021/09/26 11:10:56;;;;;;;11.32;9.10;;;;;;;40.46;14.07;94982.16;5104711;28;20043;-58
2021/09/26 11:13:26;;;;;;;6.18;4.80;;;;;;;40.56;13.33;94970.66;5104489;28;20047;-52
2021/09/26 11:16:10;;;;;;;7.20;3.88;;;;;;;40.54;13.12;94966.88;5111061;28;20052;-58
2021/09/26 11:18:45;;;;;;;8.25;4.38;;;;;;;40.36;14.01;94979.47;5111066;28;20056;-56
2021/09/26 11:21:41;;;;;;;4.65;3.90;;;;;;;40.33;14.00;94974.13;5107232;28;20059;-55
2021/09/26 11:24:13;;;;;;;5.10;3.42;;;;;;;40.13;13.37;94965.75;5110230;28;20063;-53
2021/09/26 11:27:01;;;;;;;6.00;3.75;;;;;;;40.58;13.66;94956.50;5078638;28;20044;-55
2021/09/26 11:29:31;;;;;;;5.95;4.15;;;;;;;40.38;13.55;94964.56;5097026;28;20047;-55
2021/09/26 11:31:59;;;;;;;4.43;3.80;;;;;;;40.48;14.70;94964.03;5110723;28;20139;-58
2021/09/26 11:34:43;;;;;;;18.55;3.75;;;;;;;40.43;13.60;94955.72;5101430;28;20286;-59
2021/09/26 11:37:12;;;;;;;6.70;3.88;;;;;;;40.39;14.12;94949.66;5107338;28;20058;-67
2021/09/26 11:39:41;;;;;;;13.95;4.63;;;;;;;40.35;14.97;94950.56;5110232;28;20055;-52
2021/09/26 11:42:26;;;;;;;26.35;6.47;;;;;;;40.25;14.37;94946.34;5110639;28;20039;-54